Terminal Aerodrome Forecast
Issued by NWS Cleveland, OH

Home | Current Version | Previous Version | Graphics & Text | Print | Product List | Glossary On
Versions: 1 2 3 4 5 6 7 8 9 10 11 12 13 14 15 16 17 18 19 20 21 22 23 24 25 26 27 28 29 30 31 32
000
FTUS41 KCLE 252108 AAA
TAFCLE
TAF AMD
KCLE 252108Z 2521/2624 23010G18KT P6SM BKN070
     FM260000 25008KT P6SM BKN050
      TEMPO 2603/2606 4SM -SHRA
     FM260800 30005KT P6SM BKN025
     FM261700 35008KT P6SM SCT025=

USA.gov is the U.S. government's official web portal to all federal, state and local government web resources and services.